Time;durP1;ratioP1;P1;durP2;ratioP2;P2;SDS_P1;SDS_P2;PMS_P1;PMS_P2;Temp;Humidity;BMP_temperature;BMP_pressure;BME280_temperature;BME280_humidity;BME280_pressure;Samples;Min_cycle;Max_cycle;Signal;HPM_P1;HPM_P2
2022/08/22 00:01:43;;;;;;;24.80;15.70;;;;;;;21.72;100.00;99216.19;5127993;27;20027;-29
2022/08/22 00:04:13;;;;;;;21.05;14.77;;;;;;;21.86;100.00;99211.47;5129089;27;20062;-29
2022/08/22 00:07:11;;;;;;;20.05;14.55;;;;;;;21.85;100.00;99207.16;5129378;28;20483;-30
2022/08/22 00:10:02;;;;;;;23.42;15.48;;;;;;;21.77;100.00;99213.38;5110457;27;20031;-35
2022/08/22 00:12:49;;;;;;;23.02;15.23;;;;;;;21.75;100.00;99207.44;5127637;27;20669;-37
2022/08/22 00:15:56;;;;;;;24.40;15.65;;;;;;;21.75;100.00;99212.88;5129048;28;20455;-30
2022/08/22 00:18:25;;;;;;;22.70;14.55;;;;;;;21.94;100.00;99209.91;5128414;28;20043;-29
2022/08/22 00:21:16;;;;;;;20.80;14.63;;;;;;;21.84;100.00;99200.13;5127533;27;20053;-28
2022/08/22 00:23:44;;;;;;;23.48;15.02;;;;;;;21.94;100.00;99199.81;5129100;28;20106;-28
2022/08/22 00:26:50;;;;;;;22.33;15.48;;;;;;;21.90;100.00;99201.56;5129181;28;20020;-29
2022/08/22 00:29:40;;;;;;;23.27;15.68;;;;;;;22.04;100.00;99202.25;5123050;27;20457;-30
2022/08/22 00:32:17;;;;;;;35.30;23.05;;;;;;;21.75;100.00;99199.31;5128804;28;20358;-29
2022/08/22 00:34:48;;;;;;;27.98;19.63;;;;;;;21.72;100.00;99199.91;5127388;28;20064;-28
2022/08/22 00:37:31;;;;;;;24.70;15.10;;;;;;;21.53;100.00;99194.75;5130331;27;20028;-30
2022/08/22 00:40:16;;;;;;;23.85;15.60;;;;;;;21.79;100.00;99178.56;5132927;27;20027;-28
2022/08/22 00:42:50;;;;;;;22.83;15.65;;;;;;;22.06;100.00;99189.16;5132851;27;20042;-29
2022/08/22 00:45:40;;;;;;;25.27;15.43;;;;;;;21.89;100.00;99194.56;5132723;27;20023;-29
2022/08/22 00:48:15;;;;;;;23.90;15.20;;;;;;;21.63;100.00;99211.53;5132757;27;20506;-32
2022/08/22 00:51:18;;;;;;;22.00;15.30;;;;;;;21.66;100.00;99216.34;5131331;27;20540;-28
2022/08/22 00:53:50;;;;;;;19.88;15.68;;;;;;;21.83;100.00;99214.81;5132555;27;20034;-29
2022/08/22 00:56:19;;;;;;;21.05;16.15;;;;;;;21.98;100.00;99222.50;5131678;27;20089;-28
2022/08/22 00:59:12;;;;;;;35.88;22.55;;;;;;;21.67;100.00;99217.94;5132568;27;20109;-29
2022/08/22 01:01:52;;;;;;;30.83;19.73;;;;;;;21.69;100.00;99208.69;5132668;27;20126;-33
2022/08/22 01:04:33;;;;;;;24.45;17.67;;;;;;;21.76;100.00;99209.03;5132306;27;20034;-34
2022/08/22 01:07:14;;;;;;;26.23;18.08;;;;;;;21.76;100.00;99203.59;5131065;27;20064;-33
2022/08/22 01:09:58;;;;;;;24.80;16.52;;;;;;;21.71;100.00;99203.75;5132588;27;20114;-30
2022/08/22 01:12:57;;;;;;;25.63;16.42;;;;;;;21.66;100.00;99200.09;5132234;27;20080;-28
2022/08/22 01:15:28;;;;;;;27.00;17.17;;;;;;;21.53;100.00;99200.19;5132661;27;20106;-29
2022/08/22 01:18:08;;;;;;;26.38;16.20;;;;;;;21.50;100.00;99206.25;5130944;27;20023;-28
2022/08/22 01:21:15;;;;;;;22.35;16.10;;;;;;;21.46;100.00;99206.06;5131957;27;20039;-31
2022/08/22 01:24:24;;;;;;;23.50;16.27;;;;;;;21.21;100.00;99200.16;5132447;27;20019;-29
2022/08/22 01:27:02;;;;;;;21.20;15.98;;;;;;;21.24;100.00;99185.19;5097649;27;20301;-29
2022/08/22 01:30:11;;;;;;;22.83;16.90;;;;;;;21.22;100.00;99176.56;5130504;27;20053;-30
2022/08/22 01:32:39;;;;;;;23.90;16.25;;;;;;;21.33;100.00;99201.47;5130055;27;20096;-32
2022/08/22 01:35:26;;;;;;;23.63;16.77;;;;;;;21.44;100.00;99195.50;5131787;27;20538;-29
2022/08/22 01:38:08;;;;;;;23.57;16.00;;;;;;;21.55;100.00;99187.09;5131647;27;20027;-30
2022/08/22 01:41:19;;;;;;;22.48;15.50;;;;;;;21.84;100.00;99200.13;5130371;27;20023;-28
2022/08/22 01:44:02;;;;;;;23.60;15.63;;;;;;;21.99;100.00;99196.19;5130353;27;20080;-29
2022/08/22 01:47:03;;;;;;;25.35;16.13;;;;;;;21.72;100.00;99197.22;5130032;27;20031;-29
2022/08/22 01:49:38;;;;;;;22.60;16.27;;;;;;;21.69;100.00;99192.44;5131196;27;20055;-28
2022/08/22 01:52:28;;;;;;;22.25;16.40;;;;;;;21.65;100.00;99190.31;5130292;27;20490;-29
2022/08/22 01:55:08;;;;;;;25.23;16.33;;;;;;;21.79;100.00;99192.94;5112798;27;20542;-28
2022/08/22 01:58:08;;;;;;;24.88;16.77;;;;;;;21.84;100.00;99194.69;5130139;27;20031;-29
2022/08/22 02:01:00;;;;;;;24.70;16.35;;;;;;;21.83;100.00;99187.69;5123234;27;20063;-29
2022/08/22 02:03:37;;;;;;;22.42;16.67;;;;;;;21.88;100.00;99192.94;5130189;27;20084;-29
2022/08/22 02:06:16;;;;;;;24.37;17.07;;;;;;;21.79;100.00;99184.00;5130032;27;20038;-34
2022/08/22 02:09:06;;;;;;;22.90;15.43;;;;;;;21.78;100.00;99193.25;5112555;27;20035;-29
2022/08/22 02:12:10;;;;;;;21.92;15.88;;;;;;;21.79;100.00;99205.72;5131019;27;20034;-29
2022/08/22 02:14:52;;;;;;;22.42;15.80;;;;;;;21.70;100.00;99194.00;5087102;28;20093;-32
2022/08/22 02:18:01;;;;;;;25.98;18.05;;;;;;;21.73;100.00;99204.25;5087621;28;20024;-28
2022/08/22 02:20:43;;;;;;;24.23;17.02;;;;;;;21.79;100.00;99203.78;5104196;27;20043;-33
2022/08/22 02:23:14;;;;;;;26.45;17.77;;;;;;;21.89;100.00;99213.56;5131016;27;20030;-32
2022/08/22 02:25:51;;;;;;;27.45;17.75;;;;;;;21.86;100.00;99225.03;5130844;27;20106;-36
2022/08/22 02:28:48;;;;;;;29.20;17.65;;;;;;;21.62;100.00;99220.03;5130931;27;20375;-30
2022/08/22 02:31:16;;;;;;;35.17;19.00;;;;;;;21.14;100.00;99221.47;5129616;27;20584;-35
2022/08/22 02:33:51;;;;;;;28.98;17.17;;;;;;;20.95;100.00;99229.03;5130851;27;20057;-34
2022/08/22 02:46:25;;;;;;;92.70;48.70;;;;;;;19.65;100.00;99194.91;4852117;27;8383942;-34
2022/08/22 02:49:01;;;;;;;46.90;27.83;;;;;;;20.24;100.00;99199.72;5103543;28;20079;-34
2022/08/22 02:51:38;;;;;;;30.23;18.95;;;;;;;20.32;100.00;99188.16;5103973;28;20490;-33
2022/08/22 02:54:13;;;;;;;30.65;19.83;;;;;;;20.50;100.00;99213.50;5103697;28;20036;-34
2022/08/22 02:56:47;;;;;;;44.45;24.00;;;;;;;20.62;100.00;99226.53;5103962;28;20030;-32
2022/08/22 03:00:13;;;;;;;46.03;25.17;;;;;;;20.57;100.00;99232.03;5103214;28;20032;-32
2022/08/22 03:02:59;;;;;;;59.63;30.80;;;;;;;20.52;100.00;99232.16;5102840;28;20031;-33
2022/08/22 03:05:29;;;;;;;32.45;18.40;;;;;;;20.51;100.00;99244.88;5104452;28;20035;-38
2022/08/22 03:08:23;;;;;;;25.42;16.77;;;;;;;20.59;100.00;99249.59;5104506;28;20028;-32
2022/08/22 03:11:04;;;;;;;22.73;15.45;;;;;;;20.46;100.00;99245.00;5103061;28;20081;-34
2022/08/22 03:14:06;;;;;;;24.10;16.80;;;;;;;20.51;100.00;99253.00;5103061;28;20035;-35
2022/08/22 03:16:49;;;;;;;26.17;16.30;;;;;;;20.49;100.00;99249.78;5103184;28;20089;-35
2022/08/22 03:19:29;;;;;;;24.73;15.75;;;;;;;20.66;100.00;99243.78;5104675;28;20503;-33
2022/08/22 03:21:58;;;;;;;21.73;15.10;;;;;;;20.93;100.00;99250.22;5104252;28;20032;-32
2022/08/22 03:24:23;;;;;;;26.52;14.50;;;;;;;20.84;100.00;99250.94;5104506;28;20024;-31
2022/08/22 03:27:18;;;;;;;29.38;17.48;;;;;;;20.84;100.00;99250.13;5104591;28;20030;-38
2022/08/22 03:29:49;;;;;;;51.75;30.55;;;;;;;20.78;100.00;99262.19;5102509;28;20027;-36
2022/08/22 03:32:17;;;;;;;56.88;32.53;;;;;;;20.74;100.00;99262.03;5102623;28;20081;-31
2022/08/22 03:34:57;;;;;;;64.50;32.20;;;;;;;20.65;100.00;99266.56;5102983;28;20062;-31
2022/08/22 03:37:42;;;;;;;70.65;34.53;;;;;;;20.55;100.00;99253.19;5102585;28;20032;-34
2022/08/22 03:40:33;;;;;;;53.17;27.73;;;;;;;20.37;100.00;99244.94;5104031;28;20016;-32
2022/08/22 03:43:20;;;;;;;28.77;17.27;;;;;;;20.35;100.00;99260.69;5103707;28;20495;-31
2022/08/22 03:46:16;;;;;;;21.53;14.33;;;;;;;20.57;100.00;99259.13;5085545;28;20038;-31
2022/08/22 03:49:05;;;;;;;23.90;13.43;;;;;;;20.69;100.00;99254.00;5104222;28;20039;-31
2022/08/22 03:51:37;;;;;;;18.00;12.75;;;;;;;20.79;100.00;99242.91;5104001;28;20050;-32
2022/08/22 03:54:38;;;;;;;21.58;12.57;;;;;;;20.61;100.00;99241.97;5103864;28;20114;-36
2022/08/22 03:57:23;;;;;;;18.05;12.15;;;;;;;20.66;100.00;99254.63;5071472;28;20115;-32
2022/08/22 04:00:17;;;;;;;19.77;13.75;;;;;;;20.67;100.00;99253.50;5089990;28;20107;-32
2022/08/22 04:02:55;;;;;;;19.17;12.20;;;;;;;20.70;100.00;99247.47;5078949;28;20051;-35
2022/08/22 04:05:39;;;;;;;18.88;12.48;;;;;;;20.99;100.00;99235.44;5071536;28;20122;-36
2022/08/22 04:08:39;;;;;;;20.30;12.65;;;;;;;21.04;100.00;99238.00;5089691;28;20032;-33
2022/08/22 04:11:14;;;;;;;17.80;13.07;;;;;;;20.75;100.00;99247.34;5089949;28;20038;-34
2022/08/22 04:14:15;;;;;;;21.08;13.68;;;;;;;20.68;100.00;99249.69;5071343;28;20052;-39
2022/08/22 04:17:19;;;;;;;32.88;19.92;;;;;;;20.74;100.00;99248.47;5071552;28;20085;-34
2022/08/22 04:20:10;;;;;;;33.05;21.17;;;;;;;20.86;100.00;99254.16;5087893;28;20188;-34
2022/08/22 04:23:04;;;;;;;35.97;21.63;;;;;;;20.71;100.00;99257.19;5071339;28;20028;-32
2022/08/22 04:25:49;;;;;;;29.27;20.58;;;;;;;20.40;100.00;99247.00;5089717;28;20032;-31
2022/08/22 04:28:21;;;;;;;25.80;16.00;;;;;;;20.65;100.00;99253.00;5071350;28;20038;-33
2022/08/22 04:31:08;;;;;;;26.83;17.30;;;;;;;20.75;100.00;99246.56;5089416;28;20099;-35
2022/08/22 04:34:02;;;;;;;27.33;15.85;;;;;;;20.82;100.00;99253.16;5071186;28;20499;-42
2022/08/22 04:36:30;;;;;;;23.38;15.55;;;;;;;20.73;100.00;99248.78;5089511;28;20488;-33
2022/08/22 04:39:11;;;;;;;22.77;14.82;;;;;;;20.65;100.00;99242.97;5089476;28;20078;-34
2022/08/22 04:42:13;;;;;;;22.27;14.73;;;;;;;20.71;100.00;99254.50;5070830;28;20650;-38
2022/08/22 04:44:56;;;;;;;47.50;25.60;;;;;;;20.78;100.00;99252.16;5089087;28;20044;-35
2022/08/22 04:47:46;;;;;;;28.95;18.65;;;;;;;20.93;100.00;99259.13;5070649;28;20060;-36
2022/08/22 04:50:29;;;;;;;23.58;14.88;;;;;;;20.96;100.00;99263.13;5089260;28;20082;-31
2022/08/22 04:53:22;;;;;;;21.25;14.02;;;;;;;21.13;100.00;99265.97;5070972;28;20051;-36
2022/08/22 04:55:57;;;;;;;20.23;13.70;;;;;;;20.90;100.00;99264.34;5070458;28;20046;-31
2022/08/22 04:58:57;;;;;;;21.33;14.07;;;;;;;20.92;100.00;99260.22;5087760;28;20028;-31
2022/08/22 05:02:04;;;;;;;21.58;13.95;;;;;;;21.04;100.00;99262.38;5070677;28;20069;-32
2022/08/22 05:04:36;;;;;;;19.45;13.15;;;;;;;21.07;100.00;99259.09;5070441;28;20050;-31
2022/08/22 05:07:17;;;;;;;18.77;12.73;;;;;;;21.05;100.00;99266.72;5086818;28;20032;-33
2022/08/22 05:09:47;;;;;;;22.45;14.77;;;;;;;21.09;100.00;99272.34;5069119;28;20032;-33
2022/08/22 05:12:20;;;;;;;17.38;13.57;;;;;;;21.17;100.00;99269.69;5069105;28;20035;-34
2022/08/22 05:15:15;;;;;;;19.77;14.25;;;;;;;21.12;100.00;99277.91;5087897;28;20036;-34
2022/08/22 05:17:44;;;;;;;21.55;13.38;;;;;;;21.18;100.00;99282.09;5086844;28;20071;-31
2022/08/22 05:20:16;;;;;;;25.85;16.75;;;;;;;21.19;100.00;99282.94;5068631;28;20046;-31
2022/08/22 05:22:47;;;;;;;35.67;20.38;;;;;;;21.39;100.00;99287.84;5069032;28;20076;-32
2022/08/22 05:25:29;;;;;;;35.38;20.48;;;;;;;21.63;100.00;99289.44;5087338;28;20067;-37
2022/08/22 05:28:10;;;;;;;44.35;25.52;;;;;;;21.70;100.00;99283.56;5068823;28;20028;-36
2022/08/22 05:30:37;;;;;;;44.80;26.25;;;;;;;21.89;100.00;99289.56;5087225;28;20047;-31
2022/08/22 05:33:20;;;;;;;36.27;23.07;;;;;;;21.98;100.00;99293.09;5068855;28;20380;-33
2022/08/22 05:35:52;;;;;;;33.78;21.42;;;;;;;22.07;100.00;99293.94;5068602;28;20027;-31
2022/08/22 05:38:24;;;;;;;28.45;19.77;;;;;;;22.27;100.00;99289.88;5068684;28;20028;-34
2022/08/22 05:40:58;;;;;;;27.05;19.38;;;;;;;22.26;100.00;99284.75;5086810;28;20036;-33
2022/08/22 05:43:25;;;;;;;26.80;20.75;;;;;;;22.19;100.00;99287.09;5068610;28;20028;-36
2022/08/22 05:45:54;;;;;;;32.00;24.13;;;;;;;22.46;100.00;99297.75;5067769;28;20071;-35
2022/08/22 05:48:30;;;;;;;28.42;22.23;;;;;;;22.64;100.00;99295.06;5087091;28;20173;-36
2022/08/22 05:51:06;;;;;;;44.38;30.10;;;;;;;22.48;100.00;99297.44;5068459;28;20036;-35
2022/08/22 05:53:37;;;;;;;53.65;31.13;;;;;;;22.72;100.00;99299.72;5068436;28;20020;-33
2022/08/22 05:56:16;;;;;;;53.92;33.72;;;;;;;22.83;100.00;99327.38;5068041;28;20460;-31
2022/08/22 05:58:48;;;;;;;52.95;32.15;;;;;;;22.78;100.00;99314.75;5068505;28;20034;-30
2022/08/22 06:01:26;;;;;;;27.45;20.95;;;;;;;22.85;100.00;99306.91;5068401;28;20115;-31
2022/08/22 06:04:10;;;;;;;39.28;24.05;;;;;;;23.45;100.00;99323.53;5086482;28;20035;-31
2022/08/22 06:06:42;;;;;;;41.92;25.30;;;;;;;23.23;100.00;99330.78;5086396;28;20412;-31
2022/08/22 06:09:18;;;;;;;36.35;24.30;;;;;;;23.00;100.00;99329.31;5068376;28;20495;-31
2022/08/22 06:12:10;;;;;;;57.88;32.95;;;;;;;22.92;100.00;99325.44;5067908;28;20483;-32
2022/08/22 06:15:15;;;;;;;32.60;20.88;;;;;;;22.84;100.00;99318.91;5086315;28;20035;-34
2022/08/22 06:17:47;;;;;;;26.58;19.00;;;;;;;22.77;100.00;99329.44;5086150;28;20027;-32
2022/08/22 06:20:24;;;;;;;29.67;18.77;;;;;;;22.82;100.00;99325.75;5067740;28;20092;-39
2022/08/22 06:22:59;;;;;;;26.73;19.23;;;;;;;22.94;100.00;99333.28;5086204;28;20039;-34
2022/08/22 06:25:29;;;;;;;27.95;19.20;;;;;;;23.00;100.00;99326.59;5086101;28;20142;-35
2022/08/22 06:27:57;;;;;;;28.15;19.70;;;;;;;23.13;100.00;99338.44;5067688;28;20127;-35
2022/08/22 06:30:27;;;;;;;30.40;20.63;;;;;;;23.22;100.00;99318.28;5067891;28;20388;-32
2022/08/22 06:32:57;;;;;;;27.02;20.38;;;;;;;23.25;100.00;99333.97;5067732;28;20751;-32
2022/08/22 06:38:23;;;;;;;42.53;26.75;;;;;;;23.29;100.00;99330.59;5086309;28;20078;-34
2022/08/22 06:40:53;;;;;;;32.92;21.98;;;;;;;23.42;100.00;99327.72;5086122;28;20106;-38
2022/08/22 06:43:20;;;;;;;41.28;22.25;;;;;;;23.42;100.00;99329.63;5067636;28;20032;-31
2022/08/22 06:45:46;;;;;;;31.77;21.08;;;;;;;23.36;100.00;99333.66;5067481;28;20496;-35
2022/08/22 06:48:17;;;;;;;27.33;18.52;;;;;;;23.47;100.00;99329.44;5067266;28;20051;-33
2022/08/22 06:50:47;;;;;;;27.73;19.65;;;;;;;23.49;100.00;99321.75;5067876;28;20028;-34
2022/08/22 06:53:19;;;;;;;26.25;18.33;;;;;;;23.58;100.00;99338.88;5051495;28;20064;-31
2022/08/22 06:55:55;;;;;;;33.72;21.55;;;;;;;23.60;100.00;99341.28;5085708;28;20816;-32
2022/08/22 06:58:28;;;;;;;25.13;18.05;;;;;;;23.94;99.73;99332.25;5067388;28;20057;-37
2022/08/22 07:00:57;;;;;;;32.13;17.90;;;;;;;24.04;97.84;99336.53;5067686;28;20023;-33
2022/08/22 07:03:28;;;;;;;28.83;18.80;;;;;;;23.85;99.01;99336.94;5067429;28;20032;-38
2022/08/22 07:05:56;;;;;;;22.52;15.82;;;;;;;23.98;99.08;99341.34;5067422;28;20035;-30
2022/08/22 07:08:23;;;;;;;30.23;19.77;;;;;;;23.80;99.79;99337.09;5067206;28;20383;-32
2022/08/22 07:11:17;;;;;;;25.70;15.40;;;;;;;23.90;96.98;99350.34;5067240;28;20127;-34
2022/08/22 07:13:52;;;;;;;19.75;13.48;;;;;;;24.01;92.49;99348.09;5085578;28;20411;-32
2022/08/22 07:16:46;;;;;;;27.52;16.48;;;;;;;23.89;93.98;99339.81;5067281;28;20020;-31
2022/08/22 07:19:25;;;;;;;28.60;18.23;;;;;;;23.96;97.92;99359.94;5085695;28;20032;-32
2022/08/22 07:21:50;;;;;;;23.33;15.07;;;;;;;24.23;96.69;99350.56;5067530;28;21156;-35
2022/08/22 07:24:21;;;;;;;33.08;19.10;;;;;;;24.36;97.33;99340.56;5085524;28;20858;-31
2022/08/22 07:27:22;;;;;;;35.50;18.73;;;;;;;24.35;93.97;99358.03;5067198;28;20032;-30
2022/08/22 07:30:06;;;;;;;21.80;14.35;;;;;;;24.30;94.15;99365.59;5066920;28;20024;-33
2022/08/22 07:32:42;;;;;;;31.13;17.95;;;;;;;24.28;91.46;99368.66;5089718;28;20034;-30
2022/08/22 07:35:16;;;;;;;27.70;16.75;;;;;;;24.37;92.48;99366.66;5071244;28;20051;-36
2022/08/22 07:37:57;;;;;;;35.63;19.80;;;;;;;24.46;94.91;99364.72;5070934;28;20032;-33
2022/08/22 07:40:26;;;;;;;21.65;14.95;;;;;;;24.41;90.02;99367.59;5089027;28;21095;-33
2022/08/22 07:42:57;;;;;;;34.95;17.95;;;;;;;24.38;92.90;99370.22;5070940;28;20085;-33
2022/08/22 07:45:44;;;;;;;35.38;20.52;;;;;;;24.72;93.61;99365.72;5088931;28;20032;-32
2022/08/22 07:48:33;;;;;;;27.63;17.97;;;;;;;24.96;89.06;99370.53;5070944;28;20059;-33
2022/08/22 07:51:17;;;;;;;26.05;17.23;;;;;;;25.09;90.47;99364.03;5089163;28;20479;-29
2022/08/22 07:53:49;;;;;;;21.10;14.90;;;;;;;25.55;90.27;99364.91;5070468;28;20040;-32
2022/08/22 07:56:20;;;;;;;27.23;17.83;;;;;;;25.51;88.75;99358.53;5070717;28;20032;-31
2022/08/22 07:58:54;;;;;;;20.17;15.00;;;;;;;25.61;86.68;99363.56;5070480;28;20050;-32
2022/08/22 08:01:21;;;;;;;24.00;14.57;;;;;;;25.67;87.77;99351.31;5070295;28;20059;-35
2022/08/22 08:03:56;;;;;;;16.63;14.57;;;;;;;26.00;85.60;99353.22;5070148;28;20050;-30
2022/08/22 08:06:23;;;;;;;18.35;14.13;;;;;;;25.97;86.75;99359.38;5070385;28;20396;-33
2022/08/22 08:08:49;;;;;;;;;;;;;;;26.05;88.54;99366.66;5070842;28;20020;-33
2022/08/22 08:11:17;;;;;;;22.08;15.82;;;;;;;26.32;85.81;99353.47;5088678;28;19908;-31
2022/08/22 08:13:46;;;;;;;16.17;12.63;;;;;;;26.45;81.62;99365.19;5069781;28;20032;-30
2022/08/22 08:16:18;;;;;;;15.80;12.90;;;;;;;26.59;82.90;99362.16;5088795;28;20034;-33
2022/08/22 08:18:48;;;;;;;16.25;13.13;;;;;;;26.83;80.68;99351.16;5070158;28;20111;-34
2022/08/22 08:21:48;;;;;;;20.08;13.52;;;;;;;26.61;79.90;99359.88;5070245;28;20024;-34
2022/08/22 08:24:30;;;;;;;18.52;13.55;;;;;;;26.75;80.61;99348.56;5042599;28;20044;-34
2022/08/22 08:30:07;;;;;;;19.77;14.68;;;;;;;27.13;73.05;99355.53;5088489;28;20104;-31
2022/08/22 08:32:36;;;;;;;20.25;15.95;;;;;;;27.12;77.98;99348.47;5069829;28;20031;-32
2022/08/22 08:35:07;;;;;;;20.98;15.23;;;;;;;27.38;78.34;99342.56;5088565;28;20549;-34
2022/08/22 08:38:01;;;;;;;20.63;16.10;;;;;;;27.62;73.71;99347.13;5088659;28;20031;-35
2022/08/22 08:40:29;;;;;;;20.35;14.73;;;;;;;27.78;72.19;99337.00;5077792;28;20064;-32
2022/08/22 08:43:33;;;;;;;22.38;16.45;;;;;;;27.92;75.92;99342.06;5088011;28;20078;-37
2022/08/22 08:46:11;;;;;;;22.05;15.68;;;;;;;28.04;74.58;99346.69;5087827;28;20122;-36
2022/08/22 08:49:02;;;;;;;20.92;14.57;;;;;;;27.78;73.60;99345.22;5069956;28;20027;-30
2022/08/22 08:52:02;;;;;;;18.85;14.90;;;;;;;27.76;72.02;99338.50;5084281;28;20051;-31
2022/08/22 08:54:44;;;;;;;19.33;14.32;;;;;;;28.00;73.56;99330.13;5088023;28;20035;-33
2022/08/22 08:57:28;;;;;;;19.10;15.50;;;;;;;28.25;72.66;99340.91;5069694;28;20036;-31
2022/08/22 09:00:19;;;;;;;21.20;15.75;;;;;;;28.32;72.63;99330.13;5069124;28;20027;-30
2022/08/22 09:03:07;;;;;;;20.60;15.02;;;;;;;28.67;69.82;99334.84;5069639;28;20035;-32
2022/08/22 09:06:06;;;;;;;21.25;15.38;;;;;;;28.55;70.40;99332.25;5069517;28;20051;-34
2022/08/22 09:08:55;;;;;;;22.15;15.43;;;;;;;29.04;67.89;99326.22;5087831;28;20063;-33
2022/08/22 09:11:47;;;;;;;19.77;14.90;;;;;;;29.06;70.87;99315.69;5087548;28;20028;-31
2022/08/22 09:14:55;;;;;;;21.05;14.70;;;;;;;28.85;72.00;99324.25;5087305;28;20036;-32
2022/08/22 09:17:26;;;;;;;20.95;14.85;;;;;;;29.16;71.83;99317.88;5069189;28;20031;-30
2022/08/22 09:20:26;;;;;;;18.10;14.80;;;;;;;29.19;67.17;99322.63;5069133;28;20066;-31
2022/08/22 09:23:25;;;;;;;16.33;13.82;;;;;;;29.32;68.85;99319.72;5087649;28;20053;-32
2022/08/22 09:26:13;;;;;;;17.75;14.00;;;;;;;29.32;66.50;99312.31;5087011;28;20028;-33
2022/08/22 09:28:57;;;;;;;18.33;13.65;;;;;;;28.89;65.17;99318.84;5087101;28;20028;-33
2022/08/22 09:31:28;;;;;;;16.65;13.20;;;;;;;28.71;64.04;99308.28;5087349;28;20097;-30
2022/08/22 09:34:12;;;;;;;17.90;14.35;;;;;;;28.78;66.06;99294.72;5087161;28;20085;-30
2022/08/22 09:36:49;;;;;;;16.70;13.57;;;;;;;28.43;65.56;99292.75;5087143;28;20032;-35
2022/08/22 09:39:27;;;;;;;;;;;;;;;28.71;67.07;99302.81;5069449;28;20039;-35
2022/08/22 09:42:21;;;;;;;19.33;15.00;;;;;;;29.29;67.98;99298.50;5086649;28;20790;-32
2022/08/22 09:45:10;;;;;;;20.25;14.60;;;;;;;29.94;65.95;99298.50;5086704;28;20058;-30
2022/08/22 09:48:11;;;;;;;20.23;15.02;;;;;;;30.01;65.08;99297.81;5068429;28;20881;-31
2022/08/22 09:50:58;;;;;;;16.00;14.18;;;;;;;29.97;63.79;99299.69;5087199;28;20031;-31
2022/08/22 09:54:01;;;;;;;18.60;14.60;;;;;;;29.62;65.79;99293.19;5068130;28;20028;-31
2022/08/22 09:57:09;;;;;;;17.75;14.80;;;;;;;29.84;66.49;99283.41;5086558;28;20654;-31
2022/08/22 09:59:53;;;;;;;19.75;14.95;;;;;;;30.01;62.69;99295.06;5086417;28;20028;-31
2022/08/22 10:02:43;;;;;;;17.58;14.80;;;;;;;29.85;62.07;99270.44;5086907;28;20107;-34
2022/08/22 10:05:22;;;;;;;21.05;14.63;;;;;;;29.67;64.49;99264.66;5068329;28;20032;-34
2022/08/22 10:08:10;;;;;;;20.88;15.25;;;;;;;29.75;64.73;99279.31;5068056;28;20027;-33
2022/08/22 10:10:58;;;;;;;16.67;14.38;;;;;;;30.00;63.90;99283.28;5086676;28;20028;-31
2022/08/22 10:13:36;;;;;;;17.73;14.10;;;;;;;30.72;60.24;99283.53;5068106;28;20032;-31
2022/08/22 10:16:20;;;;;;;19.13;14.73;;;;;;;30.96;62.88;99283.06;5067966;28;20032;-35
2022/08/22 10:18:55;;;;;;;18.10;14.20;;;;;;;31.38;59.06;99281.94;5086120;28;20027;-33
2022/08/22 10:21:24;;;;;;;15.80;13.85;;;;;;;31.10;57.17;99285.19;5068068;28;20047;-33
2022/08/22 10:24:04;;;;;;;18.40;14.70;;;;;;;31.30;59.23;99279.47;5086634;28;20059;-33
2022/08/22 10:26:44;;;;;;;19.10;13.75;;;;;;;30.61;56.53;99278.69;5086153;28;20035;-30
2022/08/22 10:29:45;;;;;;;17.38;14.10;;;;;;;30.19;60.23;99284.34;5086147;28;20059;-29
2022/08/22 10:32:24;;;;;;;17.00;15.18;;;;;;;30.58;60.29;99273.13;5086199;28;20639;-32
2022/08/22 10:34:55;;;;;;;19.45;15.63;;;;;;;31.17;59.47;99270.69;5067791;28;20028;-34
2022/08/22 10:37:37;;;;;;;17.30;14.02;;;;;;;31.63;58.07;99260.16;5067558;28;20028;-31
2022/08/22 10:40:10;;;;;;;21.52;15.15;;;;;;;31.90;57.24;99248.94;5067848;28;20039;-31
2022/08/22 10:42:41;;;;;;;15.93;14.23;;;;;;;32.20;56.95;99239.69;5067841;28;20038;-31
2022/08/22 10:45:27;;;;;;;17.33;14.60;;;;;;;32.21;56.28;99257.84;5067482;28;20040;-32
2022/08/22 10:47:52;;;;;;;19.05;14.25;;;;;;;32.35;55.06;99246.91;5067595;28;20426;-30
2022/08/22 10:50:26;;;;;;;17.50;13.77;;;;;;;32.65;51.64;99234.03;5085999;28;20085;-30
2022/08/22 10:55:48;;;;;;;17.40;14.30;;;;;;;32.62;51.61;99238.38;5085929;28;20505;-32
2022/08/22 10:58:23;;;;;;;15.85;13.10;;;;;;;32.62;52.53;99241.91;5085587;28;20032;-30
2022/08/22 11:01:01;;;;;;;15.30;12.57;;;;;;;32.26;52.57;99240.91;5067783;28;20506;-32
2022/08/22 11:03:43;;;;;;;15.32;13.73;;;;;;;32.29;53.11;99240.16;5067448;28;20635;-34
2022/08/22 11:06:33;;;;;;;14.73;11.80;;;;;;;32.32;52.28;99233.06;5069052;28;20031;-30
2022/08/22 11:09:21;;;;;;;16.42;13.27;;;;;;;32.42;49.35;99233.13;5057891;28;20044;-29
2022/08/22 11:12:01;;;;;;;17.52;14.00;;;;;;;32.51;54.57;99223.69;5071030;28;20066;-34
2022/08/22 11:14:36;;;;;;;17.73;13.50;;;;;;;32.82;50.74;99234.09;5071493;28;20040;-35
2022/08/22 11:17:32;;;;;;;13.85;11.90;;;;;;;33.05;50.21;99224.69;5071277;28;20031;-32
2022/08/22 11:20:24;;;;;;;16.92;13.10;;;;;;;33.14;52.79;99224.34;5071477;28;20126;-36
2022/08/22 11:23:22;;;;;;;31.08;24.63;;;;;;;33.67;49.17;99222.84;5089665;28;20016;-36
2022/08/22 11:26:17;;;;;;;19.02;12.57;;;;;;;33.57;51.83;99221.63;5071001;28;20036;-30
2022/08/22 11:28:55;;;;;;;13.48;11.77;;;;;;;32.81;48.65;99221.47;5071463;28;20117;-31
2022/08/22 11:31:35;;;;;;;15.32;12.45;;;;;;;33.28;49.65;99212.53;5089490;28;20024;-30
2022/08/22 11:34:34;;;;;;;17.17;12.65;;;;;;;33.41;46.82;99206.22;5089642;28;20475;-31
2022/08/22 11:37:37;;;;;;;13.02;10.40;;;;;;;33.67;44.80;99209.00;5089236;28;20139;-31
2022/08/22 11:40:20;;;;;;;18.42;12.00;;;;;;;34.13;47.14;99211.72;5070934;28;20122;-35
2022/08/22 11:42:57;;;;;;;14.63;12.07;;;;;;;34.14;44.68;99201.44;5070767;28;20093;-29
2022/08/22 11:45:26;;;;;;;;;;;;;;;34.21;44.11;99204.22;5071047;28;20107;-35
2022/08/22 11:48:01;;;;;;;13.82;11.85;;;;;;;34.31;47.21;99191.53;5088459;28;19977;-32
2022/08/22 11:50:35;;;;;;;13.50;12.02;;;;;;;34.11;44.13;99193.94;5088865;28;20483;-32
2022/08/22 11:53:23;;;;;;;13.48;12.00;;;;;;;33.70;42.91;99175.84;5070818;28;20085;-31
2022/08/22 11:56:36;;;;;;;13.35;11.07;;;;;;;34.01;40.40;99188.00;5088773;28;20044;-32
2022/08/22 11:59:17;;;;;;;14.55;11.40;;;;;;;34.36;41.68;99183.56;5005813;28;20030;-31
2022/08/22 12:01:59;;;;;;;13.63;12.23;;;;;;;34.52;41.81;99180.34;5006328;28;20069;-29
2022/08/22 12:04:47;;;;;;;13.07;11.68;;;;;;;34.68;41.74;99188.22;5043904;28;20028;-30
2022/08/22 12:07:27;;;;;;;23.55;12.50;;;;;;;34.95;44.30;99182.13;5089109;28;20032;-36
2022/08/22 12:09:56;;;;;;;15.40;13.13;;;;;;;34.47;45.51;99177.22;5070545;28;20432;-29
2022/08/22 12:12:38;;;;;;;15.80;13.15;;;;;;;34.34;43.83;99177.66;5089008;28;20138;-29
2022/08/22 12:15:26;;;;;;;16.23;12.88;;;;;;;34.41;43.85;99179.63;5070324;28;20032;-32
2022/08/22 12:18:07;;;;;;;13.55;10.98;;;;;;;33.86;42.15;99178.19;5088030;28;20070;-29
2022/08/22 12:20:51;;;;;;;14.70;10.82;;;;;;;33.64;41.00;99171.13;5088623;28;20099;-34
2022/08/22 12:23:46;;;;;;;18.05;12.88;;;;;;;33.72;42.97;99173.47;5088427;28;20107;-29
2022/08/22 12:26:49;;;;;;;19.33;13.63;;;;;;;33.53;42.50;99173.84;5070155;28;20564;-32
2022/08/22 12:29:17;;;;;;;15.93;13.20;;;;;;;33.52;43.54;99175.81;5088284;28;20016;-30
2022/08/22 12:32:02;;;;;;;16.80;13.02;;;;;;;33.59;41.40;99180.53;5069874;28;20081;-30
2022/08/22 12:34:30;;;;;;;18.27;14.27;;;;;;;33.82;41.88;99182.94;5088349;28;20059;-29
2022/08/22 12:37:12;;;;;;;13.52;12.20;;;;;;;33.88;42.53;99175.00;5069897;28;20028;-31
2022/08/22 12:39:59;;;;;;;14.73;12.00;;;;;;;33.38;41.86;99175.81;5069410;28;20114;-33
2022/08/22 12:42:24;;;;;;;;;;;;;;;33.62;44.01;99175.03;5070419;28;20384;-39